Time;durP1;ratioP1;P1;durP2;ratioP2;P2;SDS_P1;SDS_P2;PMS_P1;PMS_P2;Temp;Humidity;BMP_temperature;BMP_pressure;BME280_temperature;BME280_humidity;BME280_pressure;Samples;Min_cycle;Max_cycle;Signal;HPM_P1;HPM_P2
2023/01/11 00:03:11;;;;;;;3.63;2.95;;;;;;;;;;10110839;28;20052;-61
2023/01/11 00:08:06;;;;;;;4.18;3.38;;;;;;;;;;10107501;28;20052;-61
2023/01/11 00:13:00;;;;;;;4.80;3.03;;;;;;;;;;10117521;28;20045;-62
2023/01/11 00:17:54;;;;;;;4.80;3.60;;;;;;;;;;10116278;28;20547;-62
2023/01/11 00:22:48;;;;;;;5.72;3.33;;;;;;;;;;10111998;28;20049;-61
2023/01/11 00:27:43;;;;;;;3.30;2.97;;;;;;;;;;10111042;28;20124;-61
2023/01/11 00:32:36;;;;;;;5.38;3.22;;;;;;;;;;10117534;28;20045;-61
2023/01/11 00:37:30;;;;;;;3.75;3.20;;;;;;;;;;10117738;28;20138;-61
2023/01/11 00:52:48;;;;;;;3.17;2.88;;;;;;;;;;10118727;28;20044;-61
2023/01/11 00:57:42;;;;;;;3.42;3.13;;;;;;;;;;10107284;28;20056;-62
2023/01/11 01:02:36;;;;;;;3.25;2.97;;;;;;;;;;10111710;28;20052;-61
2023/01/11 01:07:30;;;;;;;3.05;2.75;;;;;;;;;;10107026;28;20131;-61
2023/01/11 01:17:36;;;;;;;2.78;2.58;;;;;;;;;;10102289;28;20049;-61
2023/01/11 01:22:30;;;;;;;2.60;2.40;;;;;;;;;;10118950;28;20052;-61
2023/01/11 01:27:24;;;;;;;2.72;2.53;;;;;;;;;;10115555;28;20057;-62
2023/01/11 01:32:18;;;;;;;2.53;2.33;;;;;;;;;;10105140;28;20053;-61
2023/01/11 01:37:13;;;;;;;2.30;2.10;;;;;;;;;;10106121;28;20045;-61
2023/01/11 01:42:33;;;;;;;5.68;3.13;;;;;;;;;;10104805;28;20502;-61
2023/01/11 01:47:45;;;;;;;3.08;2.67;;;;;;;;;;10107713;28;20045;-62
2023/01/11 01:52:38;;;;;;;2.20;2.10;;;;;;;;;;10121819;28;20080;-62
2023/01/11 01:57:34;;;;;;;2.72;2.55;;;;;;;;;;10109621;28;20068;-61
2023/01/11 02:02:28;;;;;;;2.38;2.17;;;;;;;;;;10111910;28;20053;-61
2023/01/11 02:07:34;;;;;;;2.88;2.58;;;;;;;;;;10110927;28;20076;-61
2023/01/11 02:12:48;;;;;;;2.75;2.20;;;;;;;;;;10127209;28;20053;-61
2023/01/11 02:17:42;;;;;;;2.53;2.05;;;;;;;;;;10109445;28;20090;-61
2023/01/11 02:22:58;;;;;;;2.55;2.28;;;;;;;;;;10107763;28;20049;-61
2023/01/11 02:28:03;;;;;;;4.60;2.47;;;;;;;;;;10110139;28;20075;-61
2023/01/11 02:33:12;;;;;;;2.55;2.35;;;;;;;;;;10119770;28;20084;-61
2023/01/11 02:38:12;;;;;;;3.42;2.75;;;;;;;;;;10124021;28;20409;-61
2023/01/11 02:48:58;;;;;;;2.88;2.55;;;;;;;;;;10115351;28;20509;-61
2023/01/11 02:54:04;;;;;;;3.05;2.45;;;;;;;;;;10123312;28;20144;-61
2023/01/11 02:58:59;;;;;;;4.32;2.55;;;;;;;;;;10105886;28;20575;-61
2023/01/11 03:03:53;;;;;;;2.25;2.15;;;;;;;;;;10111464;28;20405;-61
2023/01/11 03:08:59;;;;;;;3.67;2.72;;;;;;;;;;10109783;28;20055;-61
2023/01/11 03:14:30;;;;;;;2.85;2.55;;;;;;;;;;10109333;28;20053;-61
2023/01/11 03:19:29;;;;;;;2.67;2.47;;;;;;;;;;10106821;28;20052;-62
2023/01/11 03:24:22;;;;;;;;;;;;;;;;;;10124213;28;20406;-61
2023/01/11 03:29:25;;;;;;;4.25;2.90;;;;;;;;;;10118969;28;20293;-61
2023/01/11 03:34:30;;;;;;;2.08;1.98;;;;;;;;;;10127582;28;20155;-61
2023/01/11 03:39:29;;;;;;;4.70;2.72;;;;;;;;;;10135489;28;20045;-61
2023/01/11 03:44:25;;;;;;;5.28;2.42;;;;;;;;;;10116688;28;20120;-61
2023/01/11 03:49:22;;;;;;;4.25;2.85;;;;;;;;;;10126245;28;20131;-61
2023/01/11 03:54:24;;;;;;;2.75;2.10;;;;;;;;;;10137740;28;20044;-61
2023/01/11 03:59:17;;;;;;;2.75;2.38;;;;;;;;;;10109990;28;20106;-61
2023/01/11 04:04:12;;;;;;;2.50;2.30;;;;;;;;;;10129876;28;20083;-61
2023/01/11 04:09:06;;;;;;;2.40;2.30;;;;;;;;;;10109404;28;20053;-61
2023/01/11 04:14:00;;;;;;;3.75;2.22;;;;;;;;;;10116977;28;20119;-61
2023/01/11 04:18:53;;;;;;;3.20;2.47;;;;;;;;;;10109918;28;20098;-61
2023/01/11 04:23:47;;;;;;;2.63;2.42;;;;;;;;;;10107357;28;20525;-61
2023/01/11 04:28:41;;;;;;;4.97;3.45;;;;;;;;;;10117358;28;20056;-61
2023/01/11 04:33:34;;;;;;;2.33;2.13;;;;;;;;;;10114568;28;20045;-61
2023/01/11 04:38:28;;;;;;;5.82;2.40;;;;;;;;;;10115235;28;20060;-61
2023/01/11 04:43:22;;;;;;;2.20;1.92;;;;;;;;;;10105312;28;20445;-61
2023/01/11 04:48:17;;;;;;;2.45;2.22;;;;;;;;;;10116320;28;20128;-61
2023/01/11 04:53:10;;;;;;;2.78;2.58;;;;;;;;;;10107049;28;20079;-61
2023/01/11 04:58:05;;;;;;;4.45;2.80;;;;;;;;;;10106244;28;20059;-61
2023/01/11 05:02:58;;;;;;;3.33;3.00;;;;;;;;;;10112952;28;20516;-61
2023/01/11 05:07:52;;;;;;;7.28;2.88;;;;;;;;;;10108695;28;20049;-61
2023/01/11 05:12:47;;;;;;;2.33;2.17;;;;;;;;;;10110118;28;20057;-61
2023/01/11 05:17:40;;;;;;;2.25;2.05;;;;;;;;;;10109283;28;20527;-61
2023/01/11 05:22:42;;;;;;;3.63;2.85;;;;;;;;;;10116081;28;20052;-61
2023/01/11 05:27:35;;;;;;;2.97;2.78;;;;;;;;;;10110665;28;20553;-61
2023/01/11 05:32:28;;;;;;;2.28;2.08;;;;;;;;;;10115649;28;20083;-61
2023/01/11 05:37:23;;;;;;;2.42;2.22;;;;;;;;;;10105897;28;20056;-61
2023/01/11 05:42:17;;;;;;;5.63;3.38;;;;;;;;;;10107753;28;20044;-62
2023/01/11 05:47:11;;;;;;;3.72;3.13;;;;;;;;;;10119965;28;20106;-62
2023/01/11 05:52:05;;;;;;;3.20;2.90;;;;;;;;;;10105786;28;20053;-61
2023/01/11 05:56:58;;;;;;;2.97;2.67;;;;;;;;;;10098656;28;20473;-60
2023/01/11 06:01:53;;;;;;;4.00;2.72;;;;;;;;;;10106131;28;20464;-62
2023/01/11 06:06:47;;;;;;;3.67;2.97;;;;;;;;;;10113981;28;20057;-60
2023/01/11 06:11:40;;;;;;;4.10;3.47;;;;;;;;;;10117796;28;20044;-60
2023/01/11 06:16:34;;;;;;;4.18;3.67;;;;;;;;;;10111383;28;20060;-60
2023/01/11 06:21:28;;;;;;;3.88;3.10;;;;;;;;;;10112365;28;20084;-60
2023/01/11 06:26:21;;;;;;;3.22;3.00;;;;;;;;;;10112120;28;20048;-62
2023/01/11 06:31:15;;;;;;;4.00;3.45;;;;;;;;;;10110893;28;20049;-62
2023/01/11 06:36:11;;;;;;;4.55;3.55;;;;;;;;;;10111582;28;20520;-62
2023/01/11 06:41:07;;;;;;;4.43;3.92;;;;;;;;;;10110860;28;20065;-63
2023/01/11 06:46:00;;;;;;;6.70;4.22;;;;;;;;;;10138003;28;20102;-63
2023/01/11 06:50:56;;;;;;;7.70;4.20;;;;;;;;;;10120062;28;20131;-62
2023/01/11 06:55:51;;;;;;;11.45;5.55;;;;;;;;;;10103829;28;20601;-61
2023/01/11 07:00:45;;;;;;;6.63;3.50;;;;;;;;;;10114503;28;20123;-61
2023/01/11 07:05:39;;;;;;;3.28;2.88;;;;;;;;;;10106369;28;20052;-61
2023/01/11 07:10:33;;;;;;;6.55;4.07;;;;;;;;;;10106785;28;20131;-61
2023/01/11 07:15:26;;;;;;;7.90;3.45;;;;;;;;;;10120003;28;20060;-61
2023/01/11 07:20:20;;;;;;;6.38;3.47;;;;;;;;;;10119698;28;20429;-61
2023/01/11 07:25:15;;;;;;;5.32;3.35;;;;;;;;;;10113422;28;20089;-61
2023/01/11 07:30:10;;;;;;;7.20;5.03;;;;;;;;;;10105452;28;20049;-61
2023/01/11 07:35:06;;;;;;;9.10;5.38;;;;;;;;;;10105210;28;20102;-61
2023/01/11 07:40:00;;;;;;;5.43;3.53;;;;;;;;;;10113751;28;20103;-61
2023/01/11 07:44:55;;;;;;;6.28;3.45;;;;;;;;;;10109848;28;20453;-61
2023/01/11 07:49:49;;;;;;;6.00;3.88;;;;;;;;;;10111689;28;20501;-61
2023/01/11 07:54:43;;;;;;;4.47;4.05;;;;;;;;;;10119663;28;20053;-61
2023/01/11 07:59:37;;;;;;;5.43;4.28;;;;;;;;;;10106593;28;20123;-61
2023/01/11 08:04:31;;;;;;;8.07;5.05;;;;;;;;;;10113377;28;20045;-61
2023/01/11 08:09:25;;;;;;;13.57;8.00;;;;;;;;;;10107985;28;20056;-61
2023/01/11 08:19:31;;;;;;;17.60;7.00;;;;;;;;;;10118313;28;20044;-61
2023/01/11 08:24:24;;;;;;;11.55;7.30;;;;;;;;;;10108395;28;20092;-61
2023/01/11 08:29:19;;;;;;;9.50;5.03;;;;;;;;;;10112230;28;20128;-61
2023/01/11 08:34:14;;;;;;;6.55;3.65;;;;;;;;;;10111278;28;20048;-61
2023/01/11 08:39:07;;;;;;;6.45;3.70;;;;;;;;;;10117530;28;20060;-61
2023/01/11 08:44:01;;;;;;;5.10;4.57;;;;;;;;;;10108513;28;20111;-61
2023/01/11 08:48:55;;;;;;;5.75;4.63;;;;;;;;;;10106228;28;20044;-61
2023/01/11 08:53:51;;;;;;;6.75;4.68;;;;;;;;;;10116876;28;20133;-61
2023/01/11 08:58:45;;;;;;;8.55;4.57;;;;;;;;;;10104976;28;20057;-61
2023/01/11 09:03:39;;;;;;;7.20;4.72;;;;;;;;;;10105376;28;20512;-60
2023/01/11 09:08:32;;;;;;;9.75;4.93;;;;;;;;;;10104835;28;20048;-61
2023/01/11 09:13:26;;;;;;;7.65;4.57;;;;;;;;;;10108473;28;20102;-60
2023/01/11 09:18:20;;;;;;;4.25;3.53;;;;;;;;;;10105766;28;20554;-61
2023/01/11 09:23:13;;;;;;;5.57;3.45;;;;;;;;;;10119201;28;20099;-61
2023/01/11 09:28:07;;;;;;;1.67;1.58;;;;;;;;;;10120880;28;20573;-62
2023/01/11 09:33:03;;;;;;;4.18;1.95;;;;;;;;;;10112398;28;20139;-62
2023/01/11 09:38:00;;;;;;;2.60;1.98;;;;;;;;;;10116406;28;20051;-62
2023/01/11 09:43:00;;;;;;;3.17;2.47;;;;;;;;;;10114226;28;20080;-62
2023/01/11 09:48:03;;;;;;;2.33;1.83;;;;;;;;;;10117493;28;20056;-63
2023/01/11 09:52:59;;;;;;;4.55;1.98;;;;;;;;;;10140328;28;20053;-62
2023/01/11 09:58:11;;;;;;;58.40;4.15;;;;;;;;;;10127025;28;20095;-63
2023/01/11 10:03:12;;;;;;;5.03;3.10;;;;;;;;;;10111257;28;20048;-62
2023/01/11 10:08:49;;;;;;;5.65;3.30;;;;;;;;;;10113127;28;20090;-63
2023/01/11 10:14:42;;;;;;;4.90;3.22;;;;;;;;;;10133035;28;20029;-63
2023/01/11 10:20:11;;;;;;;6.68;3.40;;;;;;;;;;10105173;28;20452;-63
2023/01/11 10:25:09;;;;;;;3.47;3.17;;;;;;;;;;10119363;28;20485;-62
2023/01/11 10:35:46;;;;;;;5.35;2.90;;;;;;;;;;10122684;28;20387;-61
2023/01/11 10:41:02;;;;;;;6.13;3.80;;;;;;;;;;10123377;28;20106;-61
2023/01/11 10:45:59;;;;;;;3.50;3.20;;;;;;;;;;10112243;28;20053;-61
2023/01/11 10:51:14;;;;;;;5.95;4.00;;;;;;;;;;10134766;28;20497;-61
2023/01/11 10:56:17;;;;;;;5.82;3.17;;;;;;;;;;10111002;28;20047;-61
2023/01/11 11:01:27;;;;;;;4.97;3.72;;;;;;;;;;10122448;28;20053;-61
2023/01/11 11:06:35;;;;;;;;;;;;;;;;;;10113764;28;20112;-59
2023/01/11 11:11:35;;;;;;;4.93;3.85;;;;;;;;;;10107751;28;19975;-61
2023/01/11 11:16:51;;;;;;;5.88;3.47;;;;;;;;;;10109776;28;20049;-61
2023/01/11 11:21:51;;;;;;;4.80;3.30;;;;;;;;;;10122200;28;20091;-61
2023/01/11 11:26:46;;;;;;;8.15;3.63;;;;;;;;;;10107958;28;20156;-61
2023/01/11 11:31:45;;;;;;;7.82;4.00;;;;;;;;;;10115710;28;20115;-61
2023/01/11 11:36:41;;;;;;;9.57;3.13;;;;;;;;;;10107226;28;20049;-61
2023/01/11 11:41:47;;;;;;;5.10;3.40;;;;;;;;;;10108190;28;20087;-61
2023/01/11 11:46:41;;;;;;;6.95;4.38;;;;;;;;;;10105175;28;20044;-61
2023/01/11 11:51:36;;;;;;;3.90;3.28;;;;;;;;;;10108230;28;20091;-61
2023/01/11 11:56:32;;;;;;;3.72;3.42;;;;;;;;;;10106932;28;20060;-61
2023/01/11 12:01:32;;;;;;;4.57;3.78;;;;;;;;;;10112668;28;20045;-61
2023/01/11 12:06:33;;;;;;;6.10;3.97;;;;;;;;;;10130862;28;20086;-61
2023/01/11 12:11:33;;;;;;;4.10;3.28;;;;;;;;;;10126657;28;20048;-61
2023/01/11 12:16:31;;;;;;;5.50;3.75;;;;;;;;;;10124614;28;20053;-63
2023/01/11 12:21:29;;;;;;;5.60;3.25;;;;;;;;;;10120375;28;20060;-64
2023/01/11 12:26:36;;;;;;;4.22;3.83;;;;;;;;;;10117567;28;20049;-63
2023/01/11 12:31:53;;;;;;;7.07;4.20;;;;;;;;;;10106506;28;20063;-63
2023/01/11 12:37:22;;;;;;;4.15;3.60;;;;;;;;;;10127056;28;20075;-63
2023/01/11 12:42:34;;;;;;;4.28;3.88;;;;;;;;;;10111291;28;20517;-64
2023/01/11 12:47:58;;;;;;;4.10;3.58;;;;;;;;;;10120246;28;20045;-63
2023/01/11 12:53:09;;;;;;;5.00;4.22;;;;;;;;;;10128337;28;20476;-64
2023/01/11 12:58:43;;;;;;;4.22;3.83;;;;;;;;;;10102860;28;20053;-63
2023/01/11 13:04:11;;;;;;;6.32;4.97;;;;;;;;;;10106853;28;20075;-63
2023/01/11 13:09:16;;;;;;;6.25;4.63;;;;;;;;;;10117884;28;20048;-61
2023/01/11 13:14:40;;;;;;;4.22;3.83;;;;;;;;;;10122084;28;20110;-61
2023/01/11 13:19:42;;;;;;;5.18;4.68;;;;;;;;;;10107076;28;20103;-60
2023/01/11 13:24:36;;;;;;;6.13;4.68;;;;;;;;;;10106449;28;20044;-61
2023/01/11 13:29:35;;;;;;;5.22;4.72;;;;;;;;;;10120696;28;20151;-60
2023/01/11 13:34:31;;;;;;;6.27;5.63;;;;;;;;;;10109931;28;20049;-61
2023/01/11 13:39:28;;;;;;;6.63;5.97;;;;;;;;;;10110724;28;20099;-60
2023/01/11 13:44:29;;;;;;;8.37;5.67;;;;;;;;;;10108809;28;20053;-60
2023/01/11 13:49:59;;;;;;;8.10;5.63;;;;;;;;;;10111081;28;20118;-60
2023/01/11 13:55:08;;;;;;;6.93;6.22;;;;;;;;;;10112649;28;20056;-60
2023/01/11 14:00:43;;;;;;;7.05;6.35;;;;;;;;;;10130452;28;20049;-60
2023/01/11 14:06:10;;;;;;;16.00;6.88;;;;;;;;;;10104310;28;20045;-60
2023/01/11 14:11:41;;;;;;;9.25;6.90;;;;;;;;;;10118433;28;20044;-60
2023/01/11 14:16:55;;;;;;;9.23;7.40;;;;;;;;;;10114649;28;20045;-60
2023/01/11 14:22:12;;;;;;;14.48;7.65;;;;;;;;;;10120425;28;20106;-60
2023/01/11 14:28:02;;;;;;;8.15;7.35;;;;;;;;;;10114004;28;20509;-60
2023/01/11 14:33:21;;;;;;;8.40;7.50;;;;;;;;;;9980582;28;20058;-60
2023/01/11 14:38:26;;;;;;;9.25;7.95;;;;;;;;;;10096788;28;20133;-60
2023/01/11 14:43:40;;;;;;;11.95;8.25;;;;;;;;;;10127152;28;20129;-65
2023/01/11 14:48:56;;;;;;;13.40;8.55;;;;;;;;;;10117480;28;20130;-61
2023/01/11 14:54:20;;;;;;;12.85;10.18;;;;;;;;;;10119049;28;20747;-61
2023/01/11 14:59:32;;;;;;;18.02;12.18;;;;;;;;;;10109900;28;20045;-61
2023/01/11 15:04:26;;;;;;;16.95;12.57;;;;;;;;;;10107118;28;20053;-61
2023/01/11 15:09:41;;;;;;;16.77;11.07;;;;;;;;;;10109140;28;20049;-60
2023/01/11 15:14:36;;;;;;;12.75;10.20;;;;;;;;;;10109446;28;20049;-61
2023/01/11 15:19:34;;;;;;;22.23;11.23;;;;;;;;;;10109457;28;20075;-60
2023/01/11 15:24:35;;;;;;;11.45;9.70;;;;;;;;;;10106376;28;20037;-61
2023/01/11 15:29:53;;;;;;;10.18;8.75;;;;;;;;;;10102839;28;20045;-61
2023/01/11 15:34:48;;;;;;;13.00;8.93;;;;;;;;;;10106444;28;20048;-60
2023/01/11 15:39:53;;;;;;;11.63;10.38;;;;;;;;;;10112502;28;20127;-60
2023/01/11 15:45:05;;;;;;;15.32;11.23;;;;;;;;;;10120603;28;20060;-61
2023/01/11 15:50:27;;;;;;;15.60;8.93;;;;;;;;;;10111096;28;20409;-59
2023/01/11 15:55:47;;;;;;;13.90;8.60;;;;;;;;;;10126327;28;20494;-60
2023/01/11 16:01:04;;;;;;;27.77;17.00;;;;;;;;;;10112560;28;20051;-59
2023/01/11 16:06:06;;;;;;;13.75;10.23;;;;;;;;;;10132356;28;20049;-61
2023/01/11 16:11:14;;;;;;;30.90;27.20;;;;;;;;;;10135822;28;20052;-61
2023/01/11 16:16:20;;;;;;;36.67;30.88;;;;;;;;;;10116175;28;20053;-61
2023/01/11 16:21:18;;;;;;;21.55;18.65;;;;;;;;;;10111303;28;20053;-60
2023/01/11 16:26:19;;;;;;;16.48;14.23;;;;;;;;;;10110023;28;20458;-61
2023/01/11 16:31:13;;;;;;;15.95;14.10;;;;;;;;;;10106754;28;20036;-61
2023/01/11 16:36:19;;;;;;;25.95;15.90;;;;;;;;;;10103008;28;20067;-60
2023/01/11 16:41:14;;;;;;;18.95;13.77;;;;;;;;;;10108038;28;20126;-61
2023/01/11 16:46:28;;;;;;;14.95;10.32;;;;;;;;;;10097963;28;20706;-60
2023/01/11 16:51:21;;;;;;;13.18;8.70;;;;;;;;;;10109901;28;20417;-61
2023/01/11 16:56:20;;;;;;;16.75;11.43;;;;;;;;;;10101347;28;20131;-61
2023/01/11 17:01:14;;;;;;;16.15;10.80;;;;;;;;;;10120914;28;20037;-61
2023/01/11 17:06:07;;;;;;;17.17;10.43;;;;;;;;;;10109678;28;20060;-61
2023/01/11 17:11:26;;;;;;;13.82;10.32;;;;;;;;;;10102904;28;20079;-60
2023/01/11 17:16:39;;;;;;;13.38;10.55;;;;;;;;;;10102452;28;20099;-61
2023/01/11 17:21:34;;;;;;;12.60;10.07;;;;;;;;;;10117974;28;20051;-61
2023/01/11 17:26:30;;;;;;;21.42;14.43;;;;;;;;;;10106538;28;20482;-60
2023/01/11 17:31:30;;;;;;;23.65;18.00;;;;;;;;;;10110758;28;20083;-60
2023/01/11 17:36:24;;;;;;;39.15;28.95;;;;;;;;;;10096521;28;20041;-60
2023/01/11 17:46:30;;;;;;;15.55;12.90;;;;;;;;;;10098798;28;20666;-60
2023/01/11 17:51:27;;;;;;;18.58;13.10;;;;;;;;;;10115470;28;20520;-60
2023/01/11 17:56:40;;;;;;;15.32;13.32;;;;;;;;;;10054043;28;2034780;-60
2023/01/11 18:01:34;;;;;;;21.60;18.00;;;;;;;;;;10115790;28;20053;-60
2023/01/11 18:06:42;;;;;;;31.25;21.73;;;;;;;;;;10148071;28;20143;-60
2023/01/11 18:11:38;;;;;;;30.83;17.10;;;;;;;;;;10107871;28;20056;-60
2023/01/11 18:16:31;;;;;;;32.20;20.60;;;;;;;;;;10126772;28;20071;-61
2023/01/11 18:21:24;;;;;;;34.78;24.70;;;;;;;;;;10114165;28;20131;-60
2023/01/11 18:26:30;;;;;;;24.95;19.42;;;;;;;;;;10103638;28;20445;-60
2023/01/11 18:31:23;;;;;;;27.42;18.02;;;;;;;;;;10100566;28;20070;-59
2023/01/11 18:36:20;;;;;;;27.23;19.30;;;;;;;;;;10103399;28;20045;-60
2023/01/11 18:46:26;;;;;;;35.40;23.13;;;;;;;;;;10114005;28;20048;-60
2023/01/11 18:51:44;;;;;;;47.65;33.40;;;;;;;;;;10101085;28;20041;-60
2023/01/11 18:56:37;;;;;;;48.00;33.00;;;;;;;;;;10101787;28;20057;-60
2023/01/11 19:01:31;;;;;;;41.45;32.70;;;;;;;;;;10090660;28;20140;-60
2023/01/11 19:06:45;;;;;;;42.17;30.58;;;;;;;;;;10089601;28;20128;-60
2023/01/11 19:11:38;;;;;;;35.75;27.13;;;;;;;;;;10094409;28;20049;-60
2023/01/11 19:16:32;;;;;;;34.50;24.83;;;;;;;;;;10099547;28;20063;-60
2023/01/11 19:21:26;;;;;;;36.30;22.08;;;;;;;;;;10103958;28;20089;-60
2023/01/11 19:26:19;;;;;;;24.20;18.48;;;;;;;;;;10097116;28;20502;-59
2023/01/11 19:31:12;;;;;;;33.00;20.63;;;;;;;;;;10112770;28;20761;-60
2023/01/11 19:36:08;;;;;;;35.63;20.92;;;;;;;;;;10105152;28;20048;-60
2023/01/11 19:41:07;;;;;;;30.58;21.27;;;;;;;;;;10110527;28;20417;-59
2023/01/11 19:46:01;;;;;;;47.93;35.73;;;;;;;;;;10108969;28;20037;-59
2023/01/11 19:51:02;;;;;;;38.20;28.75;;;;;;;;;;10108804;28;20052;-59
2023/01/11 19:56:08;;;;;;;37.63;28.08;;;;;;;;;;10105608;28;20061;-60
2023/01/11 20:01:28;;;;;;;60.85;36.80;;;;;;;;;;10111475;28;20420;-59
2023/01/11 20:06:22;;;;;;;29.77;21.83;;;;;;;;;;10115945;28;20791;-59
2023/01/11 20:11:17;;;;;;;32.58;24.70;;;;;;;;;;10113643;28;20083;-59
2023/01/11 20:16:12;;;;;;;29.45;21.60;;;;;;;;;;10108283;28;20453;-59
2023/01/11 20:21:09;;;;;;;25.13;18.83;;;;;;;;;;10112146;28;20074;-59
2023/01/11 20:26:13;;;;;;;29.35;17.77;;;;;;;;;;10110265;28;20045;-59
2023/01/11 20:31:06;;;;;;;34.17;16.10;;;;;;;;;;10108347;28;20052;-59
2023/01/11 20:36:08;;;;;;;41.85;24.15;;;;;;;;;;10111291;28;20044;-60
2023/01/11 20:41:07;;;;;;;81.28;50.13;;;;;;;;;;10111160;28;20065;-60
2023/01/11 20:46:01;;;;;;;;;;;;;;;;;;10110505;28;20067;-59
2023/01/11 20:50:59;;;;;;;159.93;99.13;;;;;;;;;;10116544;28;19920;-58
2023/01/11 20:55:52;;;;;;;28.25;23.35;;;;;;;;;;10114034;28;20053;-59
2023/01/11 21:00:47;;;;;;;26.67;19.48;;;;;;;;;;10114384;28;20048;-59
2023/01/11 21:05:41;;;;;;;23.63;17.17;;;;;;;;;;10111711;28;21927;-59
2023/01/11 21:10:35;;;;;;;23.88;16.77;;;;;;;;;;10115733;28;20052;-59
2023/01/11 21:15:29;;;;;;;20.48;17.08;;;;;;;;;;10105810;28;20075;-59
2023/01/11 21:20:23;;;;;;;24.77;19.05;;;;;;;;;;10099341;28;20063;-59
2023/01/11 21:25:17;;;;;;;29.52;18.70;;;;;;;;;;10097284;28;20057;-59
2023/01/11 21:30:12;;;;;;;22.58;16.17;;;;;;;;;;10097048;28;20161;-59
2023/01/11 21:35:06;;;;;;;20.13;16.40;;;;;;;;;;10094032;28;20055;-59
2023/01/11 21:40:00;;;;;;;22.75;17.50;;;;;;;;;;10098198;28;20037;-59
2023/01/11 21:44:53;;;;;;;19.67;15.13;;;;;;;;;;10097504;28;20056;-60
2023/01/11 21:49:47;;;;;;;19.23;15.35;;;;;;;;;;10105523;28;20053;-60
2023/01/11 21:54:42;;;;;;;17.25;15.43;;;;;;;;;;10105248;28;20555;-61
2023/01/11 21:59:35;;;;;;;19.42;15.73;;;;;;;;;;10099048;28;20068;-60
2023/01/11 22:04:29;;;;;;;19.38;14.02;;;;;;;;;;10100227;28;20128;-60
2023/01/11 22:09:24;;;;;;;17.00;12.95;;;;;;;;;;10102991;28;20536;-60
2023/01/11 22:14:17;;;;;;;17.40;12.80;;;;;;;;;;10101311;28;20482;-60
2023/01/11 22:19:10;;;;;;;15.13;13.25;;;;;;;;;;10099627;28;20045;-63
2023/01/11 22:24:05;;;;;;;18.58;14.30;;;;;;;;;;10099757;28;20098;-60
2023/01/11 22:29:13;;;;;;;13.45;12.00;;;;;;;;;;10099610;28;20037;-60
2023/01/11 22:34:08;;;;;;;19.48;13.98;;;;;;;;;;10098413;28;20086;-60
2023/01/11 22:39:02;;;;;;;17.00;13.82;;;;;;;;;;10101846;28;20045;-60
2023/01/11 22:43:56;;;;;;;16.70;13.82;;;;;;;;;;10108361;28;20049;-60
2023/01/11 22:48:50;;;;;;;16.02;14.27;;;;;;;;;;10108465;28;20135;-60
2023/01/11 22:53:46;;;;;;;20.25;14.27;;;;;;;;;;10106706;28;20048;-60
2023/01/11 22:58:39;;;;;;;25.38;17.45;;;;;;;;;;10105244;28;20049;-60
2023/01/11 23:03:33;;;;;;;22.70;18.20;;;;;;;;;;10105243;28;20045;-60
2023/01/11 23:08:27;;;;;;;20.58;15.52;;;;;;;;;;10105309;28;20045;-60
2023/01/11 23:18:33;;;;;;;20.48;14.77;;;;;;;;;;10108997;28;20049;-61
2023/01/11 23:23:27;;;;;;;22.33;15.40;;;;;;;;;;10107632;28;20119;-60
2023/01/11 23:28:21;;;;;;;18.67;14.68;;;;;;;;;;10107861;28;20125;-60
2023/01/11 23:33:15;;;;;;;20.23;16.25;;;;;;;;;;10107310;28;20055;-60
2023/01/11 23:38:08;;;;;;;17.98;16.15;;;;;;;;;;10107557;28;20055;-60
2023/01/11 23:43:02;;;;;;;20.95;17.40;;;;;;;;;;10108083;28;20059;-60
2023/01/11 23:47:55;;;;;;;21.52;18.52;;;;;;;;;;10109690;28;20485;-60
2023/01/11 23:52:49;;;;;;;22.20;17.15;;;;;;;;;;10107229;28;20544;-60
2023/01/11 23:58:07;;;;;;;19.35;16.67;;;;;;;;;;10120484;28;20041;-60
